Time;durP1;ratioP1;P1;durP2;ratioP2;P2;SDS_P1;SDS_P2;PMS_P1;PMS_P2;Temp;Humidity;BMP_temperature;BMP_pressure;BME280_temperature;BME280_humidity;BME280_pressure;Samples;Min_cycle;Max_cycle;Signal;HPM_P1;HPM_P2
2021/04/21 00:00:12;;;;;;;2.10;1.80;;;;;;;5.94;45.45;101103.69;6050795;29;20226;-73
2021/04/21 00:03:26;;;;;;;3.70;1.50;;;;;;;6.30;45.42;101180.63;6050774;29;20192;-72
2021/04/21 00:06:31;;;;;;;8.83;1.60;;;;;;;6.11;46.32;101177.56;6050043;29;20195;-72
2021/04/21 00:09:36;;;;;;;1.97;1.60;;;;;;;6.15;46.05;101185.13;6049770;29;20203;-73
2021/04/21 00:12:40;;;;;;;2.27;1.50;;;;;;;6.04;46.79;101182.81;6049251;29;20228;-73
2021/04/21 00:15:44;;;;;;;1.60;1.50;;;;;;;6.01;47.32;101191.31;6049252;29;20478;-73
2021/04/21 00:18:48;;;;;;;2.20;1.70;;;;;;;6.08;47.23;101176.03;6049410;29;20260;-73
2021/04/21 00:21:54;;;;;;;1.77;1.67;;;;;;;6.13;47.20;101159.25;6049725;29;20198;-72
2021/04/21 00:24:58;;;;;;;3.30;1.40;;;;;;;6.22;46.80;101164.41;6049064;29;20446;-73
2021/04/21 00:28:04;;;;;;;2.87;2.10;;;;;;;6.16;46.14;101159.69;6048955;29;20509;-73
2021/04/21 00:31:11;;;;;;;8.17;1.70;;;;;;;6.00;45.92;101151.72;6048853;29;20520;-72
2021/04/21 00:34:18;;;;;;;5.87;2.20;;;;;;;5.89;46.79;101154.81;6048818;29;20538;-72
2021/04/21 00:37:23;;;;;;;9.60;2.50;;;;;;;5.91;46.88;101141.94;6048776;29;20194;-72
2021/04/21 00:40:37;;;;;;;2.67;1.90;;;;;;;5.91;48.07;101136.53;6048994;29;20513;-72
2021/04/21 00:43:49;;;;;;;1.47;1.47;;;;;;;5.89;47.34;101135.88;6049783;29;20283;-72
2021/04/21 00:46:58;;;;;;;5.63;1.87;;;;;;;5.94;46.96;101130.75;6048689;29;20527;-73
2021/04/21 00:50:07;;;;;;;4.30;1.60;;;;;;;5.87;47.16;101124.38;6049494;29;20201;-73
2021/04/21 00:53:17;;;;;;;4.90;1.87;;;;;;;5.37;46.42;101040.06;6048366;29;20221;-72
2021/04/21 00:56:42;;;;;;;2.70;1.77;;;;;;;5.96;46.86;101115.16;6032204;29;20214;-72
2021/04/21 00:59:59;;;;;;;3.70;1.73;;;;;;;5.86;46.75;101117.28;6049227;29;20236;-74
2021/04/21 01:03:29;;;;;;;2.87;1.77;;;;;;;5.85;46.81;101099.34;6035420;29;20197;-72
2021/04/21 01:06:36;;;;;;;7.73;1.50;;;;;;;5.87;47.21;101102.72;6048550;29;20234;-72
2021/04/21 01:09:41;;;;;;;1.67;1.57;;;;;;;5.79;47.02;101100.03;6032323;29;20242;-73
2021/04/21 01:12:48;;;;;;;3.57;1.53;;;;;;;5.77;46.60;101096.66;6031788;29;20240;-73
2021/04/21 01:15:54;;;;;;;3.47;1.60;;;;;;;5.72;46.93;101093.66;6049326;29;20193;-73
2021/04/21 01:19:01;;;;;;;1.60;1.50;;;;;;;5.53;48.30;101077.88;6048856;29;20193;-73
2021/04/21 01:22:14;;;;;;;4.07;1.50;;;;;;;5.62;48.67;101083.03;6049100;29;20237;-72
2021/04/21 01:25:20;;;;;;;;;;;;;;;5.53;48.76;101073.28;6048304;29;20374;-73
2021/04/21 01:28:25;;;;;;;;;;;;;;;5.54;47.90;101075.00;6048161;29;20141;-73
2021/04/21 01:31:31;;;;;;;3.10;1.93;;;;;;;5.59;47.56;101071.75;6048945;29;20205;-73
2021/04/21 01:34:38;;;;;;;1.70;1.60;;;;;;;5.59;47.52;101071.75;6048574;29;20297;-72
2021/04/21 01:37:43;;;;;;;5.03;2.00;;;;;;;5.54;48.06;101058.75;6048014;29;20378;-72
2021/04/21 01:40:48;;;;;;;3.10;1.50;;;;;;;5.36;48.99;101041.09;6047768;29;20485;-72
2021/04/21 01:43:55;;;;;;;3.50;1.50;;;;;;;4.80;50.44;100961.94;6048275;29;20252;-72
2021/04/21 01:47:04;;;;;;;1.43;1.43;;;;;;;5.28;49.53;101019.50;6047515;29;20441;-73
2021/04/21 01:50:08;;;;;;;;;;;;;;;5.28;50.47;101030.31;6047821;29;20057;-73
2021/04/21 01:53:29;;;;;;;1.50;1.40;;;;;;;5.37;49.93;101040.91;6047669;29;20207;-72
2021/04/21 01:56:40;;;;;;;3.83;1.60;;;;;;;5.41;49.49;101025.19;6048519;29;20195;-73
2021/04/21 01:59:48;;;;;;;4.63;1.40;;;;;;;5.37;50.13;101013.00;6047816;29;20481;-73
2021/04/21 02:03:02;;;;;;;6.57;1.63;;;;;;;5.38;49.16;101009.28;6048522;29;20236;-73
2021/04/21 02:06:30;;;;;;;1.77;1.50;;;;;;;5.26;49.90;100995.34;6047342;29;20231;-72
2021/04/21 02:09:51;;;;;;;3.93;1.40;;;;;;;5.32;49.46;101000.03;6047968;29;20198;-72
2021/04/21 02:13:04;;;;;;;1.83;1.60;;;;;;;5.30;50.38;100990.41;6048244;29;20258;-72
2021/04/21 02:16:20;;;;;;;1.60;1.60;;;;;;;5.49;50.25;100984.53;6048287;29;20194;-73
2021/04/21 02:19:39;;;;;;;3.13;1.43;;;;;;;5.38;50.48;100993.06;6047869;29;20193;-72
2021/04/21 02:22:48;;;;;;;2.40;1.50;;;;;;;5.30;50.29;100975.03;6048154;29;20201;-73
2021/04/21 02:26:10;;;;;;;1.40;1.30;;;;;;;5.26;50.86;100972.88;6047810;29;20191;-73
2021/04/21 02:29:21;;;;;;;9.20;1.70;;;;;;;5.19;51.05;100966.50;6046933;29;20389;-72
2021/04/21 02:32:35;;;;;;;10.37;1.80;;;;;;;5.18;51.10;100976.47;6047925;29;20237;-73
2021/04/21 02:35:44;;;;;;;7.37;1.77;;;;;;;5.29;51.00;100972.50;6047787;29;20273;-72
2021/04/21 02:38:55;;;;;;;1.77;1.50;;;;;;;5.25;51.27;100960.34;6047799;29;20194;-73
2021/04/21 02:42:04;;;;;;;13.57;1.80;;;;;;;5.39;51.83;100965.00;6047678;29;20548;-72
2021/04/21 02:45:15;;;;;;;4.27;1.73;;;;;;;5.16;52.03;100956.03;6047291;29;20250;-73
2021/04/21 02:48:34;;;;;;;1.50;1.40;;;;;;;5.14;52.29;100952.63;6047451;29;20241;-72
2021/04/21 02:51:46;;;;;;;8.23;1.60;;;;;;;5.30;51.26;100936.28;6047535;29;20291;-71
2021/04/21 02:55:08;;;;;;;1.73;1.50;;;;;;;5.25;51.79;100934.13;6047485;29;20270;-73
2021/04/21 02:58:19;;;;;;;8.90;2.43;;;;;;;5.17;51.54;100941.47;6046769;29;20193;-73
2021/04/21 03:01:31;;;;;;;9.43;2.07;;;;;;;5.26;52.80;100925.03;6047537;29;20253;-73
2021/04/21 03:04:43;;;;;;;28.17;2.60;;;;;;;5.24;52.09;100927.03;6047463;29;20193;-73
2021/04/21 03:07:52;;;;;;;21.43;2.53;;;;;;;5.14;52.37;100920.19;6046524;29;20192;-73
2021/04/21 03:11:04;;;;;;;9.13;2.00;;;;;;;5.03;53.50;100910.66;6047773;29;20196;-72
2021/04/21 03:14:11;;;;;;;6.90;1.83;;;;;;;4.99;52.73;100902.03;6047608;29;20261;-72
2021/04/21 03:17:17;;;;;;;6.50;1.33;;;;;;;5.18;52.18;100897.19;6047708;29;20234;-72
2021/04/21 03:20:24;;;;;;;4.30;1.70;;;;;;;5.05;52.36;100889.66;6048893;29;20417;-73
2021/04/21 03:23:31;;;;;;;17.13;1.90;;;;;;;5.07;53.25;100882.22;6050880;29;20536;-72
2021/04/21 03:26:35;;;;;;;14.33;2.40;;;;;;;5.12;53.20;100876.25;6050595;29;20224;-72
2021/04/21 03:29:41;;;;;;;4.97;1.93;;;;;;;5.04;53.07;100878.00;6050452;29;20423;-73
2021/04/21 03:32:49;;;;;;;9.17;2.27;;;;;;;5.15;52.28;100867.78;6050559;29;20257;-73
2021/04/21 03:35:53;;;;;;;4.50;1.93;;;;;;;4.90;52.74;100821.19;6050113;29;20418;-73
2021/04/21 03:38:57;;;;;;;4.60;1.80;;;;;;;5.15;53.31;100862.38;6050054;29;20381;-72
2021/04/21 03:42:00;;;;;;;1.80;1.70;;;;;;;5.23;53.24;100848.78;6050849;29;20216;-73
2021/04/21 03:45:06;;;;;;;4.20;1.80;;;;;;;5.17;52.85;100854.91;6050840;29;20302;-72
2021/04/21 03:48:10;;;;;;;3.70;1.83;;;;;;;5.14;54.23;100844.44;6049864;29;20383;-73
2021/04/21 03:51:16;;;;;;;1.63;1.63;;;;;;;5.28;53.73;100835.56;6050416;29;20200;-73
2021/04/21 03:54:20;;;;;;;8.70;2.30;;;;;;;5.18;54.17;100834.97;6049751;29;20524;-73
2021/04/21 03:57:25;;;;;;;4.93;1.93;;;;;;;5.06;53.79;100832.69;6049715;29;20444;-73
2021/04/21 04:00:29;;;;;;;1.87;1.80;;;;;;;5.07;54.04;100833.53;6050788;29;20194;-72
2021/04/21 04:03:34;;;;;;;5.33;1.70;;;;;;;5.05;53.76;100836.44;6049699;29;20197;-72
2021/04/21 04:06:42;;;;;;;5.20;2.00;;;;;;;5.05;53.57;100825.63;6049516;29;20195;-73
2021/04/21 04:09:49;;;;;;;11.47;1.80;;;;;;;5.02;54.71;100817.88;6033548;29;20512;-73
2021/04/21 04:12:53;;;;;;;5.60;1.90;;;;;;;5.13;54.22;100821.16;6050617;29;20293;-72
2021/04/21 04:15:58;;;;;;;25.63;2.30;;;;;;;5.14;54.13;100812.00;6050287;29;20193;-74
2021/04/21 04:19:04;;;;;;;16.53;2.50;;;;;;;5.31;53.41;100813.56;6049248;29;20257;-72
2021/04/21 04:22:12;;;;;;;10.63;2.23;;;;;;;5.26;54.08;100805.16;6050141;29;20287;-73
2021/04/21 04:25:17;;;;;;;11.73;2.07;;;;;;;5.22;54.35;100806.53;6049908;29;20231;-73
2021/04/21 04:28:36;;;;;;;20.60;2.40;;;;;;;5.22;54.45;100807.38;6049826;29;20233;-73
2021/04/21 04:31:42;;;;;;;15.47;2.10;;;;;;;5.25;53.50;100792.63;6049639;29;20200;-73
2021/04/21 04:34:47;;;;;;;11.90;2.10;;;;;;;5.21;53.91;100785.94;6049462;29;20218;-73
2021/04/21 04:37:56;;;;;;;4.83;2.00;;;;;;;5.11;54.57;100790.75;6048684;29;20194;-73
2021/04/21 04:41:00;;;;;;;11.97;2.27;;;;;;;5.21;53.42;100781.38;6049040;29;20555;-72
2021/04/21 04:44:06;;;;;;;7.83;2.00;;;;;;;5.29;54.06;100783.16;6049647;29;20249;-72
2021/04/21 04:47:12;;;;;;;12.13;2.20;;;;;;;5.29;54.09;100775.03;6048609;29;20383;-73
2021/04/21 04:50:18;;;;;;;8.67;2.40;;;;;;;5.20;54.79;100768.84;6048741;29;20192;-73
2021/04/21 04:53:24;;;;;;;15.90;2.17;;;;;;;5.37;53.80;100758.69;6048399;29;20222;-73
2021/04/21 04:56:27;;;;;;;12.00;2.20;;;;;;;5.46;53.63;100752.19;6049479;29;20194;-73
2021/04/21 04:59:31;;;;;;;6.13;2.10;;;;;;;5.65;51.96;100757.03;6048158;29;20478;-74
2021/04/21 05:02:38;;;;;;;12.67;2.30;;;;;;;5.72;52.55;100752.56;6049493;29;20197;-73
2021/04/21 05:05:43;;;;;;;19.20;2.07;;;;;;;5.91;51.77;100752.00;6049230;29;20194;-72
2021/04/21 05:08:52;;;;;;;11.97;2.37;;;;;;;5.98;50.62;100747.53;6048980;29;20193;-72
2021/04/21 05:11:57;;;;;;;9.00;2.40;;;;;;;6.07;48.62;100729.28;6048674;29;20241;-72
2021/04/21 05:15:01;;;;;;;9.17;2.30;;;;;;;6.10;48.85;100728.91;6049093;29;20295;-74
2021/04/21 05:18:41;;;;;;;6.30;2.00;;;;;;;6.25;48.28;100727.00;6048666;29;20193;-72
2021/04/21 05:22:37;;;;;;;11.80;2.43;;;;;;;6.22;48.19;100728.22;6047820;29;20194;-73
2021/04/21 05:26:12;;;;;;;10.03;2.27;;;;;;;6.43;48.13;100708.44;6048226;29;20289;-73
2021/04/21 05:29:53;;;;;;;21.57;2.37;;;;;;;6.60;48.16;100709.03;6047534;29;20425;-73
2021/04/21 05:33:23;;;;;;;;;;;;;;;6.73;47.87;100709.97;6048881;29;20188;-72
2021/04/21 05:36:46;;;;;;;;;;;;;;;6.98;47.13;100707.69;6048134;29;19920;-74
2021/04/21 05:40:11;;;;;;;;;;;;;;;7.09;46.69;100701.69;6048591;29;19988;-72
2021/04/21 05:44:06;;;;;;;14.53;3.07;;;;;;;7.24;46.40;100691.56;6047190;29;20222;-73
2021/04/21 05:47:24;;;;;;;;;;;;;;;7.40;45.98;100674.97;6048709;29;20053;-73
2021/04/21 05:51:06;;;;;;;12.60;2.33;;;;;;;7.41;45.97;100670.38;6030033;29;19978;-73
2021/04/21 05:54:50;;;;;;;9.07;1.77;;;;;;;7.60;45.00;100668.81;6048328;29;20338;-73
2021/04/21 05:58:24;;;;;;;12.97;1.93;;;;;;;7.76;44.99;100663.03;6048000;29;20191;-73
2021/04/21 06:01:30;;;;;;;10.70;2.20;;;;;;;7.93;45.07;100648.06;6016890;29;20216;-72
2021/04/21 06:04:33;;;;;;;8.23;2.37;;;;;;;8.06;44.99;100653.53;6048013;29;20195;-73
2021/04/21 06:07:37;;;;;;;8.37;1.90;;;;;;;8.21;44.72;100640.59;6048226;29;20231;-72
2021/04/21 06:10:41;;;;;;;5.67;2.00;;;;;;;8.00;44.88;100605.44;6048120;29;20231;-73
2021/04/21 06:13:45;;;;;;;6.97;2.00;;;;;;;8.41;44.79;100635.22;6047966;29;20295;-73
2021/04/21 06:16:48;;;;;;;10.88;2.00;;;;;;;8.58;44.45;100636.47;6048269;29;20343;-73
2021/04/21 06:19:51;;;;;;;;;;;;;;;8.75;44.22;100630.44;6047263;29;20248;-73
2021/04/21 06:23:00;;;;;;;11.55;2.00;;;;;;;8.66;44.14;100590.88;6062359;29;20028;-74
2021/04/21 06:26:04;;;;;;;;;;;;;;;9.00;44.26;100624.31;6048869;29;19952;-73
2021/04/21 06:29:09;;;;;;;8.90;2.30;;;;;;;9.17;44.02;100603.75;6047800;29;19926;-73
2021/04/21 06:32:13;;;;;;;;;;;;;;;9.40;43.57;100606.81;6047461;29;20273;-73
2021/04/21 06:35:17;;;;;;;;;;;;;;;9.57;44.50;100588.13;6047656;29;19927;-73
2021/04/21 06:38:27;;;;;;;14.60;2.15;;;;;;;9.78;43.42;100596.84;6048233;29;20255;-74
2021/04/21 06:41:30;;;;;;;;;;;;;;;9.87;43.08;100590.06;6048245;29;20091;-74
2021/04/21 06:44:42;;;;;;;;;;;;;;;10.25;43.25;100587.34;6047666;29;19992;-73
2021/04/21 06:47:45;;;;;;;17.15;2.45;;;;;;;10.43;43.05;100572.94;6047989;29;20216;-72
2021/04/21 06:50:48;;;;;;;124.72;6.63;;;;;;;10.62;43.01;100577.41;6048023;29;20278;-73
2021/04/21 06:53:53;;;;;;;18.48;2.63;;;;;;;10.72;42.67;100569.53;6049865;29;20221;-74
2021/04/21 06:56:56;;;;;;;;;;;;;;;10.82;42.27;100560.81;6051322;29;20431;-72
2021/04/21 07:00:05;;;;;;;78.97;4.53;;;;;;;10.96;42.25;100552.28;6052076;29;20034;-74
2021/04/21 07:03:17;;;;;;;21.10;3.20;;;;;;;11.05;42.73;100556.38;6051108;29;20195;-73
2021/04/21 07:06:21;;;;;;;;;;;;;;;11.30;43.25;100540.75;6051927;29;19924;-74
2021/04/21 07:09:25;;;;;;;16.88;2.05;;;;;;;11.40;41.98;100531.19;6051570;29;20150;-73
2021/04/21 07:12:30;;;;;;;11.30;2.60;;;;;;;11.12;42.35;100463.47;6052387;29;20223;-73
2021/04/21 07:15:35;;;;;;;11.73;1.80;;;;;;;11.65;41.83;100534.63;6051229;29;20203;-73
2021/04/21 07:18:40;;;;;;;14.00;2.28;;;;;;;11.66;41.65;100525.34;6050770;29;20381;-73
2021/04/21 07:21:44;;;;;;;8.73;2.20;;;;;;;11.80;40.95;100516.78;6051333;29;20266;-71
2021/04/21 07:24:48;;;;;;;9.38;1.83;;;;;;;11.88;41.09;100512.88;6050563;29;20497;-72
2021/04/21 07:27:54;;;;;;;4.65;2.17;;;;;;;11.94;40.46;100509.19;6051360;29;20299;-72
2021/04/21 07:31:11;;;;;;;9.27;2.20;;;;;;;11.94;40.65;100495.53;6050107;29;20214;-72
2021/04/21 07:34:26;;;;;;;13.43;2.15;;;;;;;11.96;40.91;100498.91;6050398;29;20409;-72
2021/04/21 07:37:35;;;;;;;11.05;1.65;;;;;;;11.98;41.31;100502.22;6051375;29;20208;-72
2021/04/21 07:40:40;;;;;;;9.95;1.60;;;;;;;12.02;41.99;100481.53;6051148;29;20310;-72
2021/04/21 07:43:46;;;;;;;11.52;2.08;;;;;;;12.19;41.12;100485.25;6050893;29;20242;-73
2021/04/21 07:46:52;;;;;;;3.13;1.80;;;;;;;12.19;41.96;100481.69;6050885;29;20191;-73
2021/04/21 07:49:57;;;;;;;13.27;2.30;;;;;;;12.30;41.70;100468.00;6050654;29;20191;-73
2021/04/21 07:53:01;;;;;;;14.67;2.30;;;;;;;12.39;41.40;100471.22;6050789;29;20290;-73
2021/04/21 07:56:05;;;;;;;;;;;;;;;12.51;41.43;100459.22;6051310;29;20308;-74
2021/04/21 07:59:15;;;;;;;;;;;;;;;12.68;40.45;100456.59;6051482;29;20006;-73
2021/04/21 08:02:21;;;;;;;3.08;1.98;;;;;;;12.54;40.72;100436.84;6050682;29;20227;-72
2021/04/21 08:05:31;;;;;;;6.65;1.67;;;;;;;12.80;40.74;100451.09;6049135;29;20095;-73
2021/04/21 08:08:36;;;;;;;9.77;2.20;;;;;;;12.81;41.38;100441.81;6032660;29;20273;-72
2021/04/21 08:11:40;;;;;;;9.90;2.17;;;;;;;12.83;40.49;100434.19;6049977;29;20229;-73
2021/04/21 08:14:46;;;;;;;11.80;2.10;;;;;;;12.73;40.80;100433.97;6033581;29;20230;-74
2021/04/21 08:17:54;;;;;;;4.18;2.20;;;;;;;12.77;40.92;100435.16;6050023;29;20253;-73
2021/04/21 08:20:58;;;;;;;9.27;2.20;;;;;;;12.74;41.27;100430.97;6048553;29;20550;-73
2021/04/21 08:24:06;;;;;;;6.75;2.00;;;;;;;12.77;41.23;100424.19;6050101;29;20227;-72
2021/04/21 08:27:13;;;;;;;4.32;1.98;;;;;;;12.80;41.71;100418.25;6048823;29;20385;-72
2021/04/21 08:30:18;;;;;;;5.05;1.60;;;;;;;12.93;41.86;100418.81;6048667;29;20249;-73
2021/04/21 08:33:22;;;;;;;4.97;1.63;;;;;;;12.83;41.47;100412.28;6049144;29;20241;-73
2021/04/21 08:36:25;;;;;;;8.82;2.00;;;;;;;12.92;41.57;100406.19;6048962;29;20217;-72
2021/04/21 08:39:28;;;;;;;9.60;1.80;;;;;;;12.87;41.29;100407.97;6048618;29;20216;-72
2021/04/21 08:42:32;;;;;;;7.22;2.08;;;;;;;12.83;41.59;100395.88;6049168;29;20191;-72
2021/04/21 08:45:36;;;;;;;5.13;1.80;;;;;;;12.86;42.36;100395.38;6049288;29;20235;-72
2021/04/21 08:48:41;;;;;;;7.38;2.13;;;;;;;12.80;42.42;100396.34;6048580;29;20520;-72
2021/04/21 08:51:46;;;;;;;3.30;1.70;;;;;;;12.88;42.20;100387.75;6049383;29;20191;-72
2021/04/21 08:54:54;;;;;;;13.48;2.67;;;;;;;12.89;41.75;100392.16;6048396;29;20493;-73
2021/04/21 08:57:59;;;;;;;8.18;2.20;;;;;;;12.78;41.61;100393.03;6047676;29;20514;-72
2021/04/21 09:01:02;;;;;;;10.15;1.92;;;;;;;12.79;41.92;100361.84;6049079;29;20283;-72
2021/04/21 09:04:06;;;;;;;6.22;2.30;;;;;;;12.95;41.86;100372.84;6047972;29;20537;-71
2021/04/21 09:07:11;;;;;;;24.23;3.22;;;;;;;12.97;42.32;100380.81;6048119;29;20482;-72
2021/04/21 09:10:16;;;;;;;10.10;3.10;;;;;;;12.93;42.11;100368.69;6048193;29;20424;-73
2021/04/21 09:13:20;;;;;;;8.40;2.25;;;;;;;12.91;42.07;100374.41;6049176;29;20219;-73
2021/04/21 09:16:24;;;;;;;5.13;2.60;;;;;;;12.92;42.23;100377.97;6049278;29;20222;-73
2021/04/21 09:19:27;;;;;;;13.20;3.88;;;;;;;12.95;42.42;100382.97;6032141;29;20264;-73
2021/04/21 09:22:30;;;;;;;10.68;2.78;;;;;;;12.93;43.31;100368.69;6048496;29;20259;-72
2021/04/21 09:25:35;;;;;;;19.30;2.40;;;;;;;12.90;42.85;100363.69;6047810;29;20483;-72
2021/04/21 09:28:41;;;;;;;4.20;2.10;;;;;;;12.67;42.85;100341.88;6049022;29;20203;-72
2021/04/21 09:31:45;;;;;;;9.35;2.13;;;;;;;12.64;42.85;100354.13;6047542;29;20539;-73
2021/04/21 09:34:55;;;;;;;4.32;1.90;;;;;;;12.64;43.03;100356.03;6047283;29;20407;-73
2021/04/21 09:38:05;;;;;;;5.25;1.90;;;;;;;12.66;43.28;100351.16;6048456;29;20240;-73
2021/04/21 09:41:16;;;;;;;4.88;1.90;;;;;;;12.80;42.40;100347.06;6048549;29;20207;-72
2021/04/21 09:44:24;;;;;;;9.40;1.98;;;;;;;12.84;42.66;100342.78;6045194;29;20234;-72
2021/04/21 09:47:28;;;;;;;2.85;1.75;;;;;;;12.93;42.99;100342.16;6047197;29;20240;-73
2021/04/21 09:50:31;;;;;;;5.72;2.25;;;;;;;12.86;42.86;100329.69;6048186;29;20226;-73
2021/04/21 09:53:37;;;;;;;6.30;2.20;;;;;;;12.99;42.99;100321.97;6046808;29;20447;-73
2021/04/21 09:56:41;;;;;;;4.97;2.10;;;;;;;12.95;43.43;100325.47;6047530;29;20229;-72
2021/04/21 09:59:56;;;;;;;9.82;2.58;;;;;;;12.93;43.50;100300.25;6047756;29;20254;-73
2021/04/21 10:03:15;;;;;;;13.65;2.70;;;;;;;13.07;43.41;100316.16;6047002;29;20505;-73
2021/04/21 10:06:21;;;;;;;10.15;2.45;;;;;;;12.94;43.05;100288.22;6047275;29;20198;-72
2021/04/21 10:09:29;;;;;;;4.28;2.45;;;;;;;13.19;42.92;100307.88;6047701;29;20198;-73
2021/04/21 10:12:36;;;;;;;4.45;2.50;;;;;;;13.20;42.35;100317.75;6048048;29;20270;-72
2021/04/21 10:15:40;;;;;;;14.27;3.15;;;;;;;13.32;42.39;100296.63;6046387;29;20222;-73
2021/04/21 10:18:43;;;;;;;25.23;3.33;;;;;;;13.21;41.75;100283.81;6047017;29;20216;-73
2021/04/21 10:21:47;;;;;;;6.55;2.88;;;;;;;13.17;42.67;100293.63;6047026;29;20197;-73
2021/04/21 10:24:51;;;;;;;18.52;2.63;;;;;;;13.32;42.43;100291.13;6046368;29;20217;-73
2021/04/21 10:27:54;;;;;;;4.03;2.70;;;;;;;13.23;41.91;100259.72;6046845;29;20207;-73
2021/04/21 10:31:02;;;;;;;2.83;2.60;;;;;;;13.38;41.88;100279.16;6052519;29;20263;-72
2021/04/21 10:34:06;;;;;;;7.13;3.05;;;;;;;13.37;41.79;100262.97;6050986;29;20443;-74
2021/04/21 10:37:10;;;;;;;10.95;3.13;;;;;;;13.44;41.23;100261.72;6050507;29;20191;-73
2021/04/21 10:40:24;;;;;;;9.73;2.50;;;;;;;13.58;41.19;100262.25;6051265;29;20206;-73
2021/04/21 10:43:40;;;;;;;9.32;2.60;;;;;;;13.65;41.46;100263.72;6051842;29;20191;-72
2021/04/21 10:47:15;;;;;;;10.35;2.78;;;;;;;13.63;42.43;100243.97;6027019;29;20484;-72
2021/04/21 10:50:34;;;;;;;9.85;2.53;;;;;;;13.62;42.42;100245.03;6027730;29;20234;-73
2021/04/21 10:53:47;;;;;;;10.98;2.40;;;;;;;13.43;42.38;100232.66;6026962;29;20207;-73
2021/04/21 10:56:50;;;;;;;8.20;2.70;;;;;;;13.45;42.89;100246.13;6028929;29;20262;-73
2021/04/21 11:00:15;;;;;;;3.90;2.78;;;;;;;13.40;42.58;100235.94;6027814;29;20230;-72
2021/04/21 11:03:42;;;;;;;11.60;2.83;;;;;;;13.47;41.87;100233.84;6029185;29;20255;-73
2021/04/21 11:06:47;;;;;;;7.90;3.03;;;;;;;13.26;42.49;100225.53;6028270;29;20192;-72
2021/04/21 11:09:55;;;;;;;10.68;2.83;;;;;;;13.26;42.34;100220.06;6028739;29;20192;-72
2021/04/21 11:13:00;;;;;;;10.60;2.70;;;;;;;13.43;42.58;100218.97;6028495;29;20217;-73
2021/04/21 11:16:06;;;;;;;3.88;3.10;;;;;;;13.47;42.33;100206.44;6027279;29;20223;-73
2021/04/21 11:19:29;;;;;;;14.98;2.97;;;;;;;13.46;41.85;100210.25;6027373;29;20435;-72
2021/04/21 11:22:41;;;;;;;15.60;3.03;;;;;;;13.60;42.11;100211.56;6028313;29;20191;-73
2021/04/21 11:25:44;;;;;;;6.07;3.10;;;;;;;13.63;41.61;100208.34;6027116;29;20195;-73
2021/04/21 11:28:58;;;;;;;10.82;3.50;;;;;;;13.54;42.34;100196.13;6028092;29;20270;-72
2021/04/21 11:32:13;;;;;;;12.85;3.53;;;;;;;13.71;42.88;100196.91;6027009;29;20191;-72
2021/04/21 11:35:27;;;;;;;9.38;3.25;;;;;;;13.84;42.50;100192.16;6027919;29;20219;-73
2021/04/21 11:38:43;;;;;;;4.35;3.30;;;;;;;13.81;42.21;100191.56;6027972;29;20233;-72
2021/04/21 11:41:49;;;;;;;21.05;3.72;;;;;;;13.81;42.15;100168.81;6010903;29;20213;-72
2021/04/21 11:44:58;;;;;;;10.38;3.22;;;;;;;13.78;42.49;100194.84;6038832;29;20244;-72
2021/04/21 11:48:20;;;;;;;12.95;3.40;;;;;;;13.76;42.82;100176.97;6049666;29;20246;-73
2021/04/21 11:51:24;;;;;;;7.18;3.30;;;;;;;13.88;42.94;100179.59;6051117;29;20242;-72
2021/04/21 11:54:27;;;;;;;3.60;3.10;;;;;;;14.04;42.33;100178.72;6049335;29;20574;-73
2021/04/21 11:57:31;;;;;;;9.75;2.70;;;;;;;13.92;42.77;100180.75;6050225;29;20191;-73
2021/04/21 12:00:38;;;;;;;12.07;3.47;;;;;;;14.05;42.61;100174.88;6049132;29;20382;-73
2021/04/21 12:03:44;;;;;;;8.55;3.15;;;;;;;13.82;nan;100173.19;6049815;29;20199;-73
2021/04/21 12:06:49;;;;;;;12.35;3.08;;;;;;;13.95;43.04;100163.78;6049616;29;20364;-73
2021/04/21 12:09:52;;;;;;;8.23;3.35;;;;;;;13.95;43.16;100169.25;6050018;29;20200;-73
2021/04/21 12:13:14;;;;;;;9.43;3.00;;;;;;;13.89;42.73;100131.91;6049116;29;20421;-72
2021/04/21 12:16:18;;;;;;;18.92;3.22;;;;;;;13.95;42.84;100119.91;6050259;29;20294;-74
2021/04/21 12:19:21;;;;;;;11.30;3.47;;;;;;;14.28;42.29;100147.16;6048987;29;20199;-73
2021/04/21 12:22:39;;;;;;;4.10;2.90;;;;;;;14.29;42.48;100160.63;6048880;29;20289;-72
2021/04/21 12:25:42;;;;;;;;;;;;;;;14.36;42.90;100144.00;6050220;29;20025;-73
2021/04/21 12:28:47;;;;;;;10.10;3.13;;;;;;;14.17;42.86;100123.47;6048771;29;20588;-72
2021/04/21 12:31:52;;;;;;;6.70;2.90;;;;;;;14.36;42.81;100146.72;6050114;29;20492;-73
2021/04/21 12:34:55;;;;;;;;;;;;;;;14.44;42.68;100135.28;6050741;29;19920;-72
2021/04/21 12:38:00;;;;;;;;;;;;;;;14.49;43.13;100131.75;6049066;29;19955;-72
2021/04/21 12:41:06;;;;;;;8.50;3.20;;;;;;;14.36;43.48;100127.53;6049410;29;20032;-73
2021/04/21 12:44:18;;;;;;;7.10;2.97;;;;;;;14.35;44.14;100136.88;6049635;29;19924;-73
2021/04/21 12:47:30;;;;;;;18.00;3.00;;;;;;;14.22;44.65;100132.56;6049016;29;20476;-73
2021/04/21 12:50:33;;;;;;;18.27;3.25;;;;;;;14.14;44.82;100130.28;6049638;29;19978;-73
2021/04/21 12:53:37;;;;;;;10.52;3.00;;;;;;;14.29;44.91;100126.88;6048184;29;20191;-72
2021/04/21 12:56:42;;;;;;;3.35;2.78;;;;;;;14.24;44.18;100118.59;6048271;29;20605;-73
2021/04/21 12:59:46;;;;;;;7.18;2.95;;;;;;;14.26;44.14;100121.91;6031684;29;20214;-73
2021/04/21 13:02:51;;;;;;;3.40;2.85;;;;;;;14.28;43.87;100115.06;6049034;29;20240;-72
2021/04/21 13:05:54;;;;;;;13.70;3.47;;;;;;;14.15;44.29;100118.22;6048681;29;20258;-73
2021/04/21 13:09:05;;;;;;;9.10;3.90;;;;;;;13.76;44.62;100098.28;6048725;29;20191;-73
2021/04/21 13:12:12;;;;;;;7.38;3.60;;;;;;;14.18;44.33;100108.63;6048997;29;20233;-73
2021/04/21 13:15:20;;;;;;;14.20;3.30;;;;;;;14.30;43.98;100112.09;6048126;29;20277;-73
2021/04/21 13:18:31;;;;;;;8.77;3.15;;;;;;;14.41;44.24;100100.13;6049117;29;20198;-73
2021/04/21 13:21:34;;;;;;;5.50;3.22;;;;;;;14.51;44.26;100105.72;6048998;29;20253;-72
2021/04/21 13:24:40;;;;;;;17.05;3.35;;;;;;;14.47;44.07;100074.41;6047526;29;20549;-73
2021/04/21 13:27:44;;;;;;;13.70;3.90;;;;;;;14.63;44.26;100098.16;6047956;29;20190;-72
2021/04/21 13:31:02;;;;;;;7.22;3.40;;;;;;;14.57;44.97;100096.44;6047865;29;20191;-73
2021/04/21 13:34:08;;;;;;;17.17;3.30;;;;;;;14.43;45.82;100087.00;6048656;29;20220;-72
2021/04/21 13:37:12;;;;;;;8.27;3.60;;;;;;;13.99;45.43;100085.41;6047611;29;20443;-73
2021/04/21 13:40:21;;;;;;;;;;;;;;;14.16;44.29;100089.72;6048933;29;20211;-74
2021/04/21 13:43:25;;;;;;;;;;;;;;;14.24;44.92;100080.19;6047827;29;19943;-73
2021/04/21 13:46:28;;;;;;;;;;;;;;;14.32;44.53;100087.97;6048629;29;19920;-72
2021/04/21 13:49:31;;;;;;;12.20;3.67;;;;;;;14.08;44.84;100078.34;6048192;29;19955;-72
2021/04/21 13:52:34;;;;;;;10.03;3.87;;;;;;;14.02;45.10;100084.91;6048125;29;20239;-72
2021/04/21 13:55:38;;;;;;;4.47;3.95;;;;;;;14.08;45.32;100081.09;6048310;29;19927;-72
2021/04/21 13:58:41;;;;;;;13.32;4.78;;;;;;;14.18;45.78;100092.19;6048442;29;20191;-72
2021/04/21 14:01:45;;;;;;;9.48;4.20;;;;;;;14.16;46.41;100088.88;6048136;29;20198;-71
2021/04/21 14:04:48;;;;;;;14.65;5.55;;;;;;;14.01;48.14;100083.22;6046548;29;20452;-72
2021/04/21 14:07:51;;;;;;;6.15;4.13;;;;;;;13.96;48.87;100094.13;6047133;29;20191;-72
2021/04/21 14:10:55;;;;;;;7.75;4.15;;;;;;;13.98;48.87;100084.56;6046938;29;20191;-73
2021/04/21 14:13:58;;;;;;;11.52;4.75;;;;;;;13.67;49.76;100080.66;6048035;29;20190;-71
2021/04/21 14:17:02;;;;;;;12.43;5.55;;;;;;;13.81;49.14;100070.94;6047773;29;20223;-73
2021/04/21 14:20:08;;;;;;;5.32;4.43;;;;;;;13.61;49.89;100081.66;6047531;29;20191;-72
2021/04/21 14:23:11;;;;;;;9.98;4.40;;;;;;;13.67;49.52;100075.16;6047307;29;20301;-72
2021/04/21 14:26:20;;;;;;;9.13;4.25;;;;;;;13.59;50.10;100083.81;6047173;29;20210;-72
2021/04/21 14:29:23;;;;;;;8.18;4.32;;;;;;;13.71;49.90;100070.81;6047705;29;20262;-72
2021/04/21 14:32:27;;;;;;;10.63;4.60;;;;;;;13.88;49.59;100075.41;6047351;29;20267;-72
2021/04/21 14:35:31;;;;;;;12.02;4.82;;;;;;;13.92;49.79;100080.09;6046756;29;20286;-73
2021/04/21 14:38:40;;;;;;;11.52;3.85;;;;;;;13.93;48.77;100078.19;6046638;29;20338;-73
2021/04/21 14:41:45;;;;;;;5.68;4.78;;;;;;;13.80;49.01;100080.25;6047859;29;20251;-72
2021/04/21 14:44:48;;;;;;;7.15;4.10;;;;;;;13.71;49.02;100070.81;6046819;29;20562;-73